Flight Track Log - Related Links

Times and Time Zones

All times are in EST time to prevent confusion due to time zone crossing. See the N589H flight status page for this flight to view local times or setup timezone preferences in your user account.

Time Position Orientation Groundspeed Altitude Reporting Facility
EST Latitude Longitude Course Direction KTS MPH feet Rate Location/Type
Thu 12:42:01 AM 17.3333 -62.8833 302° West 250 288 9,000  Level San Juan Center
Thu 12:43:00 AM 17.3291 -62.7489 302° West  Level Estimated
Thu 12:43:01 AM 17.3667 -62.9333 305° West 230 265 11,300  Level San Juan Center
Thu 12:44:00 AM 17.3739 -62.8245 302° West  Level Estimated
Thu 12:45:00 AM 17.4187 -62.9001 302° West  Level Estimated
Thu 12:45:01 AM 17.4333 -63.0500 301° West 240 276 14,500  Level San Juan Center
Thu 12:46:00 AM 17.4635 -62.9758 302° West  Level Estimated
Thu 12:46:01 AM 17.4667 -63.1167 298° West 240 276 16,300  Level San Juan Center
Thu 12:47:00 AM 17.5082 -63.0515 302° West  Level Estimated
Thu 12:47:01 AM 17.5000 -63.1833 298° West 230 265 18,000  Level San Juan Center
Thu 12:48:01 AM 17.5167 -63.2333 289° West 240 276 19,500 1,500 Climbing San Juan Center
Thu 12:49:01 AM 17.5500 -63.3000 298° West 250 288 21,000 1,488 Climbing San Juan Center
Thu 12:50:02 AM 17.5833 -63.3667 298° West 250 288 22,500 1,388 Climbing San Juan Center
Thu 12:51:02 AM 17.6167 -63.4333 298° West 250 288 23,800 1,250 Climbing San Juan Center
Thu 12:52:02 AM 17.6500 -63.5000 298° West 260 299 25,000 1,200 Climbing San Juan Center
Thu 12:53:02 AM 17.6833 -63.5667 298° West 260 299 26,200 900 Climbing San Juan Center
Thu 12:54:02 AM 17.7167 -63.6500 293° West 270 311 26,800 600 Climbing San Juan Center
Thu 12:55:02 AM 17.7333 -63.7167 285° West 290 334 27,400 700 Climbing San Juan Center
Thu 12:56:02 AM 17.7833 -63.8000 302° West 290 334 28,200 793 Climbing San Juan Center
Thu 12:57:03 AM 17.8167 -63.8667 298° West 290 334 29,000 744 Climbing San Juan Center
Thu 12:58:03 AM 17.8500 -63.9500 293° West 290 334 29,700 700 Climbing San Juan Center
Thu 12:59:03 AM 17.8833 -64.0167 298° West 290 334 30,400 650 Climbing San Juan Center
Thu 01:00:03 AM 17.9167 -64.1000 293° West 290 334 31,000 600 Climbing San Juan Center
Thu 01:01:03 AM 17.9500 -64.1667 298° West 290 334 31,600 550 Climbing San Juan Center
Thu 01:02:03 AM 17.9833 -64.2500 293° West 290 334 32,100 545 Climbing San Juan Center
Thu 01:03:04 AM 18.0167 -64.3333 293° West 290 334 32,700 496 Climbing San Juan Center
Thu 01:04:04 AM 18.0667 -64.4000 308° West 290 334 33,100 350 Climbing San Juan Center
Thu 01:05:04 AM 18.1000 -64.4833 293° West 290 334 33,400 300 Climbing San Juan Center
Thu 01:06:04 AM 18.1333 -64.5500 298° West 300 345 33,700 300 Climbing San Juan Center
Thu 01:07:04 AM 18.1667 -64.6333 293° West 290 334 34,000 350 Climbing San Juan Center
Thu 01:08:04 AM 18.2000 -64.7167 293° West 300 345 34,400 350 Climbing San Juan Center
Thu 01:09:04 AM 18.2333 -64.7833 298° West 290 334 34,700 298 Climbing San Juan Center
Thu 01:10:05 AM 18.2667 -64.8667 293° West 290 334 35,000 248 Climbing San Juan Center
Thu 01:11:05 AM 18.3000 -64.9500 293° West 320 368 35,200 200 Climbing San Juan Center
Thu 01:12:05 AM 18.3500 -65.0167 308° West 300 345 35,400 200 Climbing San Juan Center
Thu 01:13:05 AM 18.3833 -65.1000 293° West 290 334 35,600 300 Climbing San Juan Center
Thu 01:14:05 AM 18.4167 -65.1833 293° West 300 345 36,000 200 Climbing San Juan Center
Thu 01:15:05 AM 18.4500 -65.2667 293° West 300 345 36,000  Level San Juan Center
Thu 01:16:06 AM 18.4833 -65.3333 298° West 300 345 36,000  Level San Juan Center
Thu 01:17:06 AM 18.5167 -65.4167 293° West 290 334 36,000  Level San Juan Center
Thu 01:18:05 AM 18.5500 -65.5000 293° West 310 357 36,000  Level San Juan Center
Thu 01:19:05 AM 18.6000 -65.5833 302° West 310 357 36,000  Level San Juan Center
Thu 01:20:06 AM 18.6333 -65.6667 293° West 310 357 36,000  Level San Juan Center
Thu 01:21:06 AM 18.6667 -65.7500 293° West 310 357 36,000  Level San Juan Center
Thu 01:22:06 AM 18.7000 -65.8333 293° West 300 345 36,000  Level San Juan Center
Thu 01:23:06 AM 18.7333 -65.9167 293° West 310 357 36,000  Level San Juan Center
Thu 01:24:06 AM 18.7833 -66.0000 302° West 310 357 36,000  Level San Juan Center
Thu 01:25:06 AM 18.8167 -66.0833 293° West 300 345 36,000  Level San Juan Center
Thu 01:26:06 AM 18.8500 -66.1500 298° West 310 357 36,000  Level San Juan Center
Thu 01:27:07 AM 18.8833 -66.2333 293° West 300 345 36,000  Level San Juan Center
Thu 01:28:07 AM 18.9167 -66.3167 293° West 300 345 36,000  Level San Juan Center
Thu 01:29:07 AM 18.9500 -66.4000 293° West 300 345 36,000  Level San Juan Center
Thu 01:30:07 AM 19.0000 -66.4833 302° West 300 345 36,000  Level San Juan Center
Thu 01:31:07 AM 19.0333 -66.5667 293° West 300 345 36,000  Level San Juan Center
Thu 01:32:07 AM 19.0667 -66.6333 298° West 300 345 36,000  Level San Juan Center
Thu 01:33:07 AM 19.1000 -66.7167 293° West 310 357 36,000  Level San Juan Center
Thu 01:34:08 AM 19.1333 -66.8000 293° West 300 345 36,000  Level San Juan Center
Thu 01:35:08 AM 19.1667 -66.8667 298° West 300 345 36,000  Level San Juan Center
Thu 01:36:08 AM 19.2000 -66.9500 293° West 310 357 36,000  Level San Juan Center
Thu 01:37:08 AM 19.2333 -67.0333 293° West 300 345 36,000  Level San Juan Center
Thu 01:38:08 AM 19.2667 -67.1167 293° West 310 357 36,000  Level San Juan Center
Thu 01:39:08 AM 19.3000 -67.2000 293° West 290 334 36,000  Level San Juan Center
Thu 01:40:08 AM 19.3333 -67.2833 293° West 310 357 36,000  Level San Juan Center
Thu 01:41:08 AM 19.3667 -67.3667 293° West 310 357 36,000  Level San Juan Center
Thu 01:42:08 AM 19.4167 -67.4333 308° West 300 345 36,000  Level San Juan Center
Thu 01:43:08 AM 19.4500 -67.5167 293° West 300 345 36,000  Level San Juan Center
Thu 01:44:09 AM 19.4833 -67.6000 293° West 310 357 36,000  Level San Juan Center
Thu 01:45:09 AM 19.5167 -67.6833 293° West 300 345 36,000  Level San Juan Center
Thu 01:46:09 AM 19.5500 -67.7667 293° West 300 345 36,000  Level San Juan Center
Thu 01:47:09 AM 19.5833 -67.8500 293° West 300 345 36,000  Level San Juan Center
Thu 01:48:09 AM 19.6167 -67.9333 293° West 300 345 36,000  Level San Juan Center
Thu 01:49:09 AM 19.6667 -68.0167 303° West 300 345 36,000  Level San Juan Center
Thu 01:50:10 AM 19.7000 -68.1000 293° West 310 357 36,000  Level San Juan Center
Thu 01:51:10 AM 19.7333 -68.1833 293° West 310 357 36,000  Level San Juan Center
Thu 01:52:10 AM 19.7667 -68.2667 293° West 320 368 36,000 -271 Level San Juan Center
Thu 01:53:45 AM 19.8464 -68.4256 298° West 357 411 35,300 -459 Descending Miami Center
Thu 01:54:47 AM 19.8847 -68.5156 294° West 345 397 34,800 -500 Descending Miami Center
Thu 01:55:45 AM 19.9186 -68.6081 291° West 340 391 34,300 -356 Descending Miami Center
Thu 01:56:45 AM 19.9608 -68.7003 296° West 340 391 34,100 -148 Descending Miami Center
Thu 01:57:47 AM 20.0011 -68.7903 295° West 345 397 34,000 -50 Descending Miami Center
Thu 01:58:45 AM 20.0383 -68.8675 297° West 340 391 34,000  Level Miami Center
Thu 01:59:48 AM 20.0881 -68.9461 304° West 335 386 34,000  Level Miami Center
Thu 02:00:45 AM 20.1381 -69.0269 303° West 330 380 34,000  Level Miami Center
Thu 02:01:47 AM 20.1894 -69.1011 306° West 330 380 34,000  Level Miami Center
Thu 02:02:45 AM 20.2353 -69.1847 300° West 325 374 34,000  Level Miami Center
Thu 02:03:45 AM 20.2850 -69.2636 304° West 325 374 34,000  Level Miami Center
Thu 02:04:48 AM 20.3325 -69.3406 303° West 325 374 34,000  Level Miami Center
Thu 02:05:45 AM 20.3822 -69.4217 303° West 325 374 34,000  Level Miami Center
Thu 02:06:46 AM 20.4317 -69.5008 304° West 325 374 34,000  Level Miami Center
Thu 02:07:45 AM 20.4792 -69.5822 302° West 325 374 34,000  Level Miami Center
Thu 02:08:47 AM 20.5267 -69.6614 303° West 325 374 34,000  Level Miami Center
Thu 02:09:45 AM 20.5761 -69.7406 304° West 325 374 34,000  Level Miami Center
Thu 02:10:45 AM 20.6256 -69.8200 304° West 325 374 34,000  Level Miami Center
Thu 02:11:45 AM 20.6772 -69.9036 303° West 330 380 34,000  Level Miami Center
Thu 02:12:45 AM 20.7247 -69.9833 303° West 330 380 34,000  Level Miami Center
Thu 02:13:45 AM 20.7742 -70.0650 303° West 330 380 34,000  Level Miami Center
Thu 02:14:45 AM 20.8214 -70.1467 302° West 330 380 34,000  Level Miami Center
Thu 02:15:45 AM 20.8728 -70.2286 304° West 330 380 34,000  Level Miami Center
Thu 02:16:45 AM 20.9222 -70.3125 302° West 330 380 34,000  Level Miami Center
Thu 02:17:45 AM 20.9694 -70.3947 302° West 330 380 34,000  Level Miami Center
Thu 02:18:47 AM 21.0208 -70.4744 305° West 330 380 34,000  Level Miami Center
Thu 02:19:47 AM 21.0681 -70.5564 302° West 330 380 34,000  Level Miami Center
Thu 02:20:46 AM 21.1192 -70.6386 304° West 330 380 34,000  Level Miami Center
Thu 02:21:45 AM 21.1686 -70.7231 302° West 330 380 34,000  Level Miami Center
Thu 02:22:45 AM 21.2175 -70.8031 303° West 330 380 34,000  Level Miami Center
Thu 02:23:45 AM 21.2667 -70.8853 303° West 330 380 34,000  Level Miami Center
Thu 02:24:48 AM 21.3156 -70.9678 302° West 330 380 34,000  Level Miami Center
Thu 02:25:45 AM 21.3647 -71.0525 302° West 330 380 34,000  Level Miami Center
Thu 02:26:45 AM 21.4183 -71.1458 302° West 330 380 34,000  Level Miami Center
Thu 02:27:45 AM 21.4606 -71.2131 304° West 330 380 34,000  Level Miami Center
Thu 02:28:47 AM 21.5206 -71.3131 303° West 353 406 34,000  Level Miami Center
Thu 02:29:45 AM 21.5650 -71.3917 301° West 340 391 34,000  Level Miami Center
Thu 02:30:45 AM 21.6158 -71.4719 304° West 330 380 34,000  Level Miami Center
Thu 02:31:45 AM 21.6647 -71.5569 302° West 330 380 34,000  Level Miami Center
Thu 02:32:48 AM 21.7133 -71.6400 302° West 330 380 34,000  Level Miami Center
Thu 02:33:45 AM 21.7600 -71.7231 301° West 330 380 34,000  Level Miami Center
Thu 02:34:45 AM 21.8128 -71.8058 304° West 330 380 34,000  Level Miami Center
Thu 02:35:46 AM 21.8594 -71.8892 301° West 330 380 34,000  Level Miami Center
Thu 02:36:45 AM 21.9081 -71.9722 302° West 330 380 34,000  Level Miami Center
Thu 02:37:47 AM 21.9589 -72.0575 303° West 330 380 34,000  Level Miami Center
Thu 02:38:45 AM 22.0072 -72.1386 303° West 330 380 34,000  Level Miami Center
Thu 02:39:45 AM 22.0558 -72.2242 302° West 330 380 34,000  Level Miami Center
Thu 02:40:45 AM 22.1064 -72.3097 303° West 330 380 34,000  Level Miami Center
Thu 02:41:46 AM 22.1547 -72.3933 302° West 330 380 34,000  Level Miami Center
Thu 02:42:45 AM 22.2053 -72.4789 303° West 330 380 34,000  Level Miami Center
Thu 02:43:45 AM 22.2514 -72.5625 301° West 330 380 34,000  Level Miami Center
Thu 02:44:47 AM 22.3039 -72.6483 303° West 330 380 34,000  Level Miami Center
Thu 02:45:48 AM 22.3522 -72.7344 301° West 330 380 34,000  Level Miami Center
Thu 02:46:47 AM 22.4006 -72.8181 302° West 330 380 34,000  Level Miami Center
Thu 02:47:46 AM 22.4528 -72.8997 305° West 330 380 34,000  Level Miami Center
Thu 02:48:45 AM 22.4989 -72.9881 299° West 330 380 34,000  Level Miami Center
Thu 02:49:48 AM 22.5469 -73.0744 301° West 330 380 34,000  Level Miami Center
Thu 02:50:47 AM 22.5886 -73.1542 300° West 330 380 34,000  Level Miami Center
Thu 02:51:45 AM 22.6389 -73.2428 302° West 336 387 34,000  Level Miami Center
Thu 02:52:45 AM 22.6908 -73.3267 304° West 336 387 34,000  Level Miami Center
Thu 02:53:45 AM 22.7408 -73.4111 303° West 336 387 34,000  Level Miami Center
Thu 02:54:47 AM 22.7867 -73.4997 299° West 331 381 34,000  Level Miami Center
Thu 02:55:47 AM 22.8386 -73.5819 304° West 331 381 34,000  Level Miami Center
Thu 02:56:45 AM 22.8864 -73.6664 302° West 331 381 34,000  Level Miami Center
Thu 02:57:47 AM 22.9342 -73.7531 301° West 331 381 34,000  Level Miami Center
Thu 02:58:48 AM 22.9819 -73.8353 302° West 331 381 34,000  Level Miami Center
Thu 02:59:47 AM 23.0275 -73.9222 300° West 331 381 34,000  Level Miami Center
Thu 03:00:45 AM 23.0792 -74.0025 305° West 331 381 34,000  Level Miami Center
Thu 03:01:47 AM 23.1244 -74.0872 300° West 331 381 34,000  Level Miami Center
Thu 03:02:45 AM 23.1719 -74.1697 302° West 331 381 34,000  Level Miami Center
Thu 03:03:45 AM 23.2153 -74.2525 300° West 326 375 34,000  Level Miami Center
Thu 03:04:45 AM 23.2669 -74.3350 304° West 326 375 34,000  Level Miami Center
Thu 03:05:46 AM 23.3100 -74.4181 299° West 326 375 34,000  Level Miami Center
Thu 03:06:45 AM 23.3553 -74.4986 301° West 326 375 34,000  Level Miami Center
Thu 03:07:48 AM 23.4003 -74.5792 301° West 321 369 34,000  Level Miami Center
Thu 03:08:45 AM 23.4475 -74.6600 302° West 321 369 34,000  Level Miami Center
Thu 03:09:45 AM 23.4906 -74.7431 299° West 315 362 34,000  Level Miami Center
Thu 03:10:47 AM 23.5397 -74.8236 304° West 315 362 34,000  Level Miami Center
Thu 03:11:45 AM 23.5889 -74.9044 304° West 315 362 34,000  Level Miami Center
Thu 03:12:46 AM 23.6381 -74.9900 302° West 315 362 34,000  Level Miami Center
Thu 03:13:47 AM 23.6850 -75.0708 302° West 320 368 34,000  Level Miami Center
Thu 03:14:48 AM 23.7319 -75.1542 302° West 320 368 34,000  Level Miami Center
Thu 03:15:48 AM 23.7786 -75.2353 302° West 315 362 34,000  Level Miami Center
Thu 03:16:47 AM 23.8278 -75.3189 303° West 315 362 34,000 -202 Level Miami Center
Thu 03:17:47 AM 23.8619 -75.4092 292° West 315 362 33,600 -508 Descending Miami Center
Thu 03:18:45 AM 23.8942 -75.5042 290° West 327 376 33,000 -712 Descending Miami Center
Thu 03:19:45 AM 23.9286 -75.6017 291° West 334 384 32,200 -1,230 Descending Miami Center
Thu 03:20:47 AM 23.9669 -75.7014 293° West 354 407 30,500 -1,650 Descending Miami Center
Thu 03:21:45 AM 24.0219 -75.7897 304° West 354 407 28,900 -1,587 Descending Miami Center
Thu 03:22:48 AM 24.0811 -75.8847 304° West 354 407 27,300 -1,600 Descending Miami Center
Thu 03:23:45 AM 24.1381 -75.9775 304° West 367 422 25,700 -1,613 Descending Miami Center
Thu 03:24:47 AM 24.1931 -76.0683 304° West 367 422 24,100 -1,525 Descending Miami Center
Thu 03:25:47 AM 24.2478 -76.1592 303° West 367 422 22,600 -1,576 Descending Miami Center
Thu 03:26:45 AM 24.2983 -76.2456 303° West 360 414 21,000 -1,587 Descending Miami Center
Thu 03:27:48 AM 24.3508 -76.3342 303° West 350 403 19,400 -1,600 Descending Miami Center
Thu 03:28:45 AM 24.4014 -76.4231 302° West 350 403 17,800 -1,385 Descending Miami Center
Thu 03:29:45 AM 24.4517 -76.5072 303° West 340 391 16,700 -885 Descending Miami Center
Thu 03:30:47 AM 24.4981 -76.5961 300° West 340 391 16,000 -700 Descending Miami Center
Thu 03:31:45 AM 24.5461 -76.6783 303° West 340 391 15,300 -712 Descending Miami Center
Thu 03:32:45 AM 24.5922 -76.7650 300° West 340 391 14,600 -700 Descending Miami Center
Thu 03:33:45 AM 24.6425 -76.8475 304° West 334 384 13,900 -700 Descending Miami Center
Thu 03:34:45 AM 24.6883 -76.9297 302° West 328 377 13,200 -700 Descending Miami Center
Thu 03:35:45 AM 24.7342 -77.0122 301° West 322 371 12,500 -1,190 Descending Miami Center
Thu 03:36:46 AM 24.7781 -77.0922 301° West 316 364 10,800 -2,244 Descending Miami Center
Thu 03:37:48 AM 24.8197 -77.1656 302° West 304 350 7,900 -2,806 Descending Miami Center
Thu 03:39:00 AM 24.8849 -77.2547 304° West  Level Estimated
Thu 03:46:00 AM 25.0333 -77.4500 310° West  Level FlightAware Approximate
Thu 03:47:00 AM 25.0390 -77.4662 310° West  Level Estimated
Thu 03:48:00 AM 25.0390 -77.4662 310° West  Level Estimated
Thu 03:49:00 AM 25.0390 -77.4662 310° West  Level Estimated
Thu 03:50:00 AM 25.0390 -77.4662 310° West  Level Estimated
Thu 03:51:00 AM 25.0390 -77.4662 310° West  Level Estimated
Thu 03:52:00 AM 25.0390 -77.4662 310° West  Level Estimated
Thu 03:53:00 AM 25.0390 -77.4662 310° West  Level Estimated
Thu 03:54:00 AM 25.0390 -77.4662 310° West  Level Estimated
Thu 03:55:00 AM 25.0390 -77.4662 310° West  Level Estimated
Thu 03:56:00 AM 25.0390 -77.4662 310° West  Level Estimated
Thu 03:57:00 AM 25.0390 -77.4662 310° West  Level Estimated

Login

Don't have an account? Register now (free) for customized features, flight alerts, and more!